Tiempo atmosférico en la estación meteorológica de Valdepeñas, Ciudad Real (700 m.)



Fecha
DESCASC
Temp. máxima en grados centígrados (hora)
DESCASC
Temp. mínima en grados centígrados (hora)
DESCASC
Temp. media en grados centígrados
DESCASC
Racha de viento máxima en m/sg (hora)
DESCASC
Velocidad máxima media en intervalos de 10 minutos(hora)
DESCASC
Precipitaciones diarias en mm
DESCASC
Precipitaciones de 00:00 a 06:00 en mm
DESCASC
Precipitaciones de 06:00 a 12:00 en mm
DESCASC
Precipitaciones de 12:00 a 18:00 en mm
DESCASC
Precipitaciones de 18:00 a 24:00 en mm
DESCASC
13-10-2019 28.7 (15:50) 15.7 (08:50) 22.2 10.28 (16:10) 4.72 (14:10) 0 0 0 0 0
12-10-2019 28.5 (16:20) 16.6 (08:50) 22.6 4.17 (08:30) 2.22 (09:30) 0 0 0 0 0
11-10-2019 28.3 (16:30) 15.5 (08:20) 21.9 5 (16:20) 2.5 (18:50) 0 0 0 0 0
10-10-2019 31.1 (16:10) 13.9 (00:00) 22.5 6.39 (17:30) 2.5 (08:50) 0 0 0 0 0
09-10-2019 30.8 (16:10) 14.6 (00:00) 22.7 5 (15:20) 1.94 (15:10) 0 0 0 0 0
08-10-2019 30.6 (16:30) 13.8 (00:00) 22.2 4.44 (15:00) 1.94 (00:30) 0 0 0 0 0
07-10-2019 28.2 (16:30) 12.3 (00:00) 20.3 5.28 (12:10) 2.22 (17:40) 0 0 0 0 0
06-10-2019 28.8 (16:20) 12 (00:00) 20.4 3.89 (13:10) 1.67 (16:50) 0 0 0 0 0
05-10-2019 28.3 (16:40) 12 (00:00) 20.1 4.44 (14:40) 1.94 (14:10) 0 0 0 0 0
04-10-2019 29.7 (16:20) 11.1 (00:00) 20.4 5.28 (18:30) 2.22 (15:40) 0 0 0 0 0
03-10-2019 25.9 (16:40) 10.3 (00:00) 18.1 5 (13:40) 2.22 (13:30) 0 0 0 0 0
02-10-2019 25 (16:20) 13 (00:00) 19 5.28 (19:40) 2.22 (19:40) 0 0 0 0 0
01-10-2019 27.8 (14:40) 14.7 (00:00) 21.2 7.78 (14:30) 2.5 (15:10) -- 0 -- 0 0
30-09-2019 30.8 (15:30) 12.7 (00:00) 21.7 4.17 (15:50) 2.22 (22:20) 0 0 0 0 0
29-09-2019 31.8 (16:10) 14 (00:00) 22.9 7.78 (16:00) 2.78 (16:50) 0 0 0 0 0
28-09-2019 31.1 (15:50) 13.1 (00:00) 22.1 5 (16:20) 2.22 (16:20) 0 0 0 0 0
27-09-2019 29.8 (17:00) 13 (00:00) 21.4 5.28 (16:10) 1.94 (16:00) 0 0 0 0 0
26-09-2019 29.5 (16:40) 13.3 (00:00) 21.4 6.39 (15:50) 2.5 (15:50) 0 0 0 0 0
25-09-2019 25.9 (16:30) 16.7 (00:00) 21.3 7.22 (17:00) 1.94 (13:50) 0 0 0 0 0
24-09-2019 28.4 (17:10) 12.2 (00:00) 20.3 5.83 (16:00) 2.5 (12:50) 0 0 0 0 0
23-09-2019 24.4 (15:40) 11.1 (00:00) 17.8 3.89 (13:00) 1.67 (14:00) 0 0 0 0 0
22-09-2019 21.9 (13:20) 15.4 (00:00) 18.6 8.89 (13:50) 4.72 (13:50) 0 0 0 0 0
21-09-2019 23.6 (16:30) 17.4 (00:00) 20.5 8.61 (17:30) 4.44 (17:50) 0.4 0 0.2 0 0.2
20-09-2019 27 (17:00) 17.8 (00:00) 22.4 6.39 (17:50) 3.33 (17:50) 0 0 0 0 0
19-09-2019 29.2 (17:00) 15.9 (00:00) 22.6 5.56 (16:00) 2.22 (14:40) 0 0 0 0 0
18-09-2019 27.9 (16:10) 14.2 (00:00) 21 5 (02:00) 2.5 (22:50) 0 0 0 0 0
17-09-2019 29.4 (15:30) 17 (00:00) 23.2 13.61 (16:20) 4.44 (16:20) 0.4 0 0 0.4 0

Gráficas

Temp. máximas Temp. mínimas Temp. medias Precipitaciones Rachas de viento máximas Velocidades máximas media en intervalos de 10 minutos

Datos horarios

Fecha y hora oficial Temperatura (ºC) Velocidad del viento (km/h) Dirección del viento Racha (km/h) Dirección de racha Precipitación (mm) Presión (hPa) Tendencia (hPa) Humedad (%)
2019-10-16 23:00:00 13.8 3 Sudeste 5 Sudeste 0 938.7 1.3 37
2019-10-16 22:00:00 14.6 3 Sudeste 4 Sudoeste 0 938.6 1.7 33
2019-10-16 21:00:00 15.9 0 Calma 6 Sudeste 0 938.2 0.8 31
2019-10-16 20:00:00 17.6 0 Calma 4 Oeste 0 937.4 -0.2 27
2019-10-16 19:00:00 20.1 3 Oeste 9 Norte 0 936.9 -1.3 21
2019-10-16 18:00:00 20.6 3 Sudoeste 9 Sudoeste 0 937.4 -1.6 20
2019-10-16 17:00:00 20.7 4 Sudoeste 12 Sur 0 937.6 -2.1 21
2019-10-16 16:00:00 20.8 5 Sudoeste 14 Sur 0 938.2 -2.2 24
2019-10-16 15:00:00 19.4 4 Sudoeste 15 Oeste 0 939 -1.9 28
2019-10-16 14:00:00 17.9 5 Oeste 19 Noroeste 0 939.7 -1.3 32
2019-10-16 13:00:00 16.9 4 Oeste 12 Noroeste 0 940.4 -0.3 38
2019-10-16 12:00:00 16 3 Oeste 8 Oeste 0 940.9 0.7 40
2019-10-16 11:00:00 13.5 0 Calma 8 Norte 0 941 1.1 53
2019-10-16 10:00:00 9.5 3 Norte 8 Norte 0 940.7 0.7 66
2019-10-16 09:00:00 5.6 0 Calma 11 Nordeste 0 940.2 0.4 78
2019-10-16 08:00:00 5.5 2 Norte 8 Norte 0 939.9 -0.1 77
2019-10-16 07:00:00 5.8 3 Norte 6 Norte 0 940 -0.3 75
2019-10-16 06:00:00 6.8 3 Norte 5 Norte 0 939.8 -0.7 71
2019-10-16 05:00:00 7.9 2 Este 6 Sudeste 0 940 -0.8 66
2019-10-16 04:00:00 8.2 3 Este 6 Sudeste 0 940.3 -0.6 64
2019-10-16 03:00:00 8.9 3 Sudeste 5 Sudeste 0 940.5 -0.5 62
2019-10-16 02:00:00 9.3 3 Sudeste 5 Noroeste 0 940.8 -0.2 57
2019-10-16 01:00:00 9.9 2 Sudeste 7 Sur 0 940.9 0.4 52
2019-10-16 00:00:00 10.6 4 Sudeste 6 Sudeste 0 941 1 48
2019-10-15 23:00:00 11.3 4 Sur 8 Sur 0 941 1.4 46
2019-10-15 22:00:00 12 4 Sudeste 6 Sur 0 940.5 1.3 45
2019-10-15 21:00:00 13.1 2 Este 5 Oeste 0 940 0.8 39
2019-10-15 20:00:00 15 3 Oeste 7 Oeste 0 939.6 0.2 32
2019-10-15 19:00:00 16.7 2 Este 8 Noroeste 0 939.2 -0.5 33
2019-10-15 18:00:00 16.7 3 Oeste 14 Sur 0 939.2 -0.9 33
2019-10-15 17:00:00 17 4 Sur 14 Sudoeste 0 939.4 -1.2 32
2019-10-15 16:00:00 17.3 5 Sur 14 Sur 0 939.7 -1.5 31
2019-10-15 15:00:00 16.6 5 Sur 15 Sur 0 940.1 -1.3 34
2019-10-15 14:00:00 15.7 3 Sudeste 13 Este 0 940.6 -0.6 42
2019-10-15 13:00:00 14.4 5 Nordeste 13 Nordeste 0 941.2 0.4 47
2019-10-15 12:00:00 13 5 Sudeste 12 Este 0 941.4 1.4 59
2019-10-15 11:00:00 10.8 3 Sudoeste 8 Sur 0 941.2 1.8 70
2019-10-15 10:00:00 9.2 2 Oeste 8 Sur 0 940.8 1.8 78
2019-10-15 09:00:00 7.2 3 Sur 6 Sur 0 940 1.2 87
2019-10-15 08:00:00 7.3 4 Sur 8 Sur 0 939.4 0.6 87
2019-10-15 07:00:00 7.7 3 Sudeste 9 Sudoeste 0 939 0.2 87
2019-10-15 06:00:00 8.9 2 Sudoeste 8 Sudoeste 0 938.8 -0.1 86
2019-10-15 05:00:00 9.6 4 Sur 15 Sur 0 938.8 0.2 85
2019-10-15 04:00:00 10.5 6 Sur 13 Sur 0 938.8 0.8 83
2019-10-15 03:00:00 10.2 4 Sur 9 Sudeste 0 938.9 0.9 85
2019-10-15 02:00:00 10 2 Sur 10 Sur 0 938.6 0.8 85
2019-10-15 01:00:00 10.7 4 Sudoeste 13 Sudoeste 0 938 0.8 83
2019-10-15 00:00:00 11.6 5 Sudoeste 16 Sudoeste 0 938 1.3 80
2019-10-14 23:00:00 11.5 6 Sudoeste 18 Sudoeste 0.2 937.8 2.4 82
2019-10-14 22:00:00 11.8 6 Sudoeste 33 Oeste 0.4 937.2 3.2 80
2019-10-14 21:00:00 12.4 11 Sudoeste 31 Oeste 0.4 936.7 3.2 78
2019-10-14 20:00:00 15.9 13 Sudoeste 40 Sudoeste 0 935.4 2 59
2019-10-14 19:00:00 19.2 18 Sur 44 Sur 0 934 0.7 41
2019-10-14 18:00:00 19.9 19 Sur 40 Sur 0 933.5 0 41
2019-10-14 17:00:00 20.3 18 Sur 40 Sur 0 933.4 -0.8 46
2019-10-14 16:00:00 21.6 17 Sur 41 Sur 0 933.3 -1.2 41
2019-10-14 15:00:00 22 21 Sur 42 Sur 0 933.5 -1.1 40
2019-10-14 14:00:00 20.6 18 Sur 45 Sur 0 934.2 -0.5 45
2019-10-14 13:00:00 21 19 Sur 45 Sur 0 934.5 -0.5 46
2019-10-14 12:00:00 20.2 21 Sur 48 Sur 0 934.6 0.3 52
2019-10-14 11:00:00 19.5 19 Sur 45 Sur 0 934.7 1.5 52
2019-10-14 10:00:00 18.3 14 Sur 32 Sudeste 0 935 2.9 63
2019-10-14 09:00:00 18 12 Sur 38 Sur 0 934.3 2.5 65
2019-10-14 08:00:00 20 13 Sudeste 27 Sudeste 0 933.2 1.3 44
2019-10-14 07:00:00 20.8 14 Sudeste 28 Sudeste 0 932.1 0.3 37
2019-10-14 06:00:00 20.7 10 Sur 21 Sur 0 931.8 -0.5 36
2019-10-14 05:00:00 20.3 12 Sur 26 Sur 0 931.9 -0.9 36
2019-10-14 04:00:00 20.6 5 Sudeste 14 Sudeste 0 931.8 -1.8 32
2019-10-14 03:00:00 21.4 3 Este 19 Sudeste 0 932.3 -1.9 30
2019-10-14 02:00:00 21.9 6 Sudeste 21 Este 0 932.8 -1.9 29
2019-10-14 01:00:00 21.2 9 Este 21 Este 0 933.6 -1 32
2019-10-14 00:00:00 20.4 6 Este 14 Este 0 934.2 -0.3 34
2019-10-13 23:00:00 20.4 2 Sudeste 8 Este 0 934.7 0.3 34
2019-10-13 22:00:00 20.6 0 Calma 5 Este 0 934.6 0.1 32
2019-10-13 21:00:00 22.2 3 Sur 10 Sudeste 0 934.5 -0.1 28
2019-10-13 20:00:00 24.3 6 Sudeste 20 Sur 0 934.4 -0.3 24
2019-10-13 19:00:00 26.9 10 Sur 27 Sur 0 934.5 -0.4 20
2019-10-13 18:00:00 27.8 14 Sur 30 Sur 0 934.6 -0.8 18
2019-10-13 17:00:00 27.9 14 Sur 37 Sur 0 934.7 -1.4 19
2019-10-13 16:00:00 28.6 13 Sur 31 Sur 0 934.9 -1.9 17
2019-10-13 15:00:00 27.7 15 Sur 31 Sur 0 935.4 -1.7 19
2019-10-13 14:00:00 26.8 9 Sur 26 Sur 0 936.1 -1.1 24
2019-10-13 13:00:00 25.5 6 Sur 18 Sur 0 936.8 0.1 36
2019-10-13 12:00:00 23.2 7 Sur 15 Sur 0 937.1 0.9 50
2019-10-13 11:00:00 20.7 3 Sudoeste 11 Sudoeste 0 937.2 1.4 63
2019-10-13 10:00:00 18.3 7 Sur 13 Sur 0 936.7 1.3 74
2019-10-13 09:00:00 16 3 Este 13 Sur 0 936.2 0.7 83
2019-10-13 08:00:00 16.4 2 Nordeste 15 Este 0 935.8 0.3 79
2019-10-13 07:00:00 16.8 5 Nordeste 14 Este 0 935.4 -0.3 73
2019-10-13 06:00:00 17.3 3 Este 10 Este 0 935.5 -0.5 68
2019-10-13 05:00:00 17.9 3 Sudeste 10 Sudeste 0 935.5 -0.5 64
2019-10-13 04:00:00 18.5 5 Sudeste 13 Sudeste 0 935.7 -0.4 59
2019-10-13 03:00:00 18.5 6 Sur 13 Sur 0 936 0 53
2019-10-13 02:00:00 20.4 8 Sur 15 Sudeste 0 936 0.1 47
2019-10-13 01:00:00 20.8 5 Sudeste 13 Sudeste 0 936.1 0.7 39
2019-10-13 00:00:00 20.6 5 Sudeste 10 Sudeste 0 936 1 36
2019-10-12 23:00:00 20.2 5 Este 9 Este 0 935.9 1.5 37
2019-10-12 22:00:00 21 3 Sudeste 8 Sudeste 0 935.4 1.1 34
2019-10-12 21:00:00 22.7 3 Sudeste 10 Sur 0 935 0.3 31
2019-10-12 20:00:00 24.6 2 Este 4 Noroeste 0 934.4 -0.6 29
2019-10-12 19:00:00 27.2 0 Calma 8 Norte 0 934.3 -1 24
2019-10-12 18:00:00 27.9 3 Sudoeste 10 Norte 0 934.7 -1.3 22
2019-10-12 17:00:00 28.3 4 Nordeste 12 Este 0 935 -1.9 21
2019-10-12 16:00:00 28.1 4 Este 13 Este 0 935.3 -2.2 27
2019-10-12 15:00:00 26.3 3 Este 12 Sur 0 936 -1.7 31
2019-10-12 14:00:00 26 4 Sur 12 Sudeste 0 936.9 -0.7 31
2019-10-12 13:00:00 24.4 5 Este 11 Este 0 937.5 0.3 35
2019-10-12 12:00:00 22.9 4 Este 8 Este 0 937.7 0.9 44
2019-10-12 11:00:00 20.6 0 Calma 7 Norte 0 937.6 1.1 51
2019-10-12 10:00:00 18.5 3 Norte 13 Nordeste 0 937.2 0.3 57
2019-10-12 09:00:00 16.6 5 Norte 15 Norte 0 936.8 -0.1 60
2019-10-12 08:00:00 17 6 Norte 10 Norte 0 936.5 -0.5 57
2019-10-12 07:00:00 17.3 2 Norte 8 Nordeste 0 936.9 -0.3 54
2019-10-12 06:00:00 18 4 Norte 6 Norte 0 936.9 -0.9 52
2019-10-12 05:00:00 18.7 2 Norte 8 Norte 0 937 -1 49
2019-10-12 04:00:00 19.2 3 Norte 8 Norte 0 937.2 -0.9 47
2019-10-12 03:00:00 19.6 3 Sudeste 6 Sudeste 0 937.8 -0.2 44
2019-10-12 02:00:00 20.1 3 Sudeste 6 Sudeste 0 938 0 42
2019-10-12 01:00:00 21.6 2 Sudoeste 11 Sudeste 0 938.1 0.4 39
2019-10-12 00:00:00 21.7 0 Calma 8 Sudeste 0 938 0.4 37
2019-10-11 23:00:00 22.2 3 Sudoeste 9 Sudeste 0 938 0.8 35
2019-10-11 22:00:00 22.6 4 Sudeste 10 Sudeste 0 937.7 0.6 34
2019-10-11 21:00:00 23.4 5 Sudeste 11 Sudeste 0 937.6 0.6 32
2019-10-11 20:00:00 24.8 6 Sur 14 Sur 0 937.2 -0.1 29
2019-10-11 19:00:00 26.9 7 Sur 15 Sur 0 937.1 -0.6 22
2019-10-11 18:00:00 27.6 7 Sur 15 Sudeste 0 937 -1.2 25
2019-10-11 17:00:00 28 4 Sudoeste 18 Sur 0 937.3 -1.9 28
2019-10-11 16:00:00 27.8 4 Sur 13 Sur 0 937.7 -2.2 29
2019-10-11 15:00:00 27.1 3 Sudeste 10 Noroeste 0 938.2 -2 32
2019-10-11 14:00:00 26.8 4 Norte 11 Noroeste 0 939.2 -1.3 33
2019-10-11 13:00:00 25.9 3 Sudoeste 9 Noroeste 0 939.9 -0.2 39
2019-10-11 12:00:00 24.1 3 Oeste 10 Sur 0 940.2 0.8 44
2019-10-11 11:00:00 22.1 4 Sur 9 Sudeste 0 940.5 1.5 52
2019-10-11 10:00:00 19.6 3 Sudeste 9 Sur 0 940.1 1.3 63
2019-10-11 09:00:00 15.7 3 Norte 6 Norte 0 939.4 0.7 75
2019-10-11 08:00:00 15.7 2 Norte 9 Nordeste 0 939 0.4 74
2019-10-11 07:00:00 16.2 4 Norte 8 Norte 0 938.8 -0.1 72
2019-10-11 06:00:00 16.6 5 Norte 9 Norte 0 938.7 -0.1 70
2019-10-11 05:00:00 17.9 3 Nordeste 7 Norte 0 938.6 -0.1 67
2019-10-11 04:00:00 17.7 3 Norte 6 Este 0 938.9 0.1 64
2019-10-11 03:00:00 18.7 5 Norte 13 Nordeste 0 938.8 -0.1 60
2019-10-11 02:00:00 20.5 5 Nordeste 11 Nordeste 0 938.7 0.1 52
2019-10-11 01:00:00 22 5 Sudeste 12 Sudeste 0 938.8 0.6 47
2019-10-11 00:00:00 22.2 3 Oeste 9 Sudeste 0 938.9 1.1 43
2019-10-10 23:00:00 22.3 3 Sudeste 9 Sudeste 0 938.6 1.2 41
2019-10-10 22:00:00 23.1 3 Sudeste 10 Sudeste 0 938.2 1.1 39
2019-10-10 21:00:00 24.9 6 Sudeste 11 Sudeste 0 937.8 0.8 34
2019-10-10 20:00:00 26.9 3 Sudeste 6 Sur 0 937.4 0.3 32
2019-10-10 19:00:00 28.7 2 Oeste 9 Noroeste 0 937.1 -0.3 27
2019-10-10 18:00:00 29.4 3 Sudoeste 23 Sudeste 0 937 -0.7 26
2019-10-10 17:00:00 30.7 5 Sur 13 Sur 0 937.1 -1.3 24
2019-10-10 16:00:00 30.8 3 Norte 18 Sudeste 0 937.4 -1.5 23
2019-10-10 15:00:00 30.4 5 Sur 14 Sudeste 0 937.7 -1.4 24
2019-10-10 14:00:00 29.5 5 Nordeste 17 Sudeste 0 938.4 -0.7 25
2019-10-10 13:00:00 28.2 3 Oeste 13 Sudeste 0 938.9 0 29
2019-10-10 12:00:00 26.2 6 Sur 12 Sur 0 939.1 0.7 34
2019-10-10 11:00:00 22.5 2 Sudoeste 5 Sur 0 939.1 1.4 44
2019-10-10 10:00:00 17.5 0 Calma 15 Nordeste 0 938.9 1.4 56
2019-10-10 09:00:00 14.4 9 Nordeste 15 Nordeste 0 938.4 1 63
2019-10-10 08:00:00 14.5 3 Norte 6 Norte 0 937.7 0.5 65
2019-10-10 07:00:00 14.5 2 Sudeste 5 Nordeste 0 937.5 0.4 64
2019-10-10 06:00:00 15.5 3 Norte 6 Norte 0 937.4 0.1 60
2019-10-10 05:00:00 16.5 3 Norte 7 Norte 0 937.2 0 57
2019-10-10 04:00:00 17.6 0 Calma 4 Norte 0 937.1 -0.3 54
2019-10-10 03:00:00 18.7 3 Este 5 Sudeste 0 937.3 0 51
2019-10-10 02:00:00 19.4 3 Sudeste 4 Sur 0 937.2 0.1 48
2019-10-10 01:00:00 20.2 3 Sur 5 Sudeste 0 937.4 0.8 44
2019-10-10 00:00:00 21.2 2 Sur 4 Sur 0 937.3 1.2 40
2019-10-09 23:00:00 22.2 0 Calma 7 Sudeste 0 937.1 1.5 37
2019-10-09 22:00:00 23.2 4 Sudeste 9 Sudeste 0 936.6 1.3 35
2019-10-09 21:00:00 24.6 3 Este 10 Este 0 936.1 0.9 30
2019-10-09 20:00:00 27.4 3 Noroeste 7 Noroeste 0 935.6 0.1 25
2019-10-09 19:00:00 29.6 3 Oeste 14 Oeste 0 935.3 -0.5 21
2019-10-09 18:00:00 30 4 Sudoeste 13 Oeste 0 935.2 -0.8 20
2019-10-09 17:00:00 30.2 4 Oeste 17 Oeste 0 935.5 -1 19
2019-10-09 16:00:00 30.5 4 Oeste 18 Oeste 0 935.8 -1.2 20
2019-10-09 15:00:00 30 5 Oeste 15 Sudoeste 0 936 -1.5 21
2019-10-09 14:00:00 29.7 4 Sudoeste 12 Oeste 0 936.5 -1 22
2019-10-09 13:00:00 28.3 3 Sudoeste 12 Sur 0 937 -0.1 25
2019-10-09 12:00:00 26.3 3 Sudoeste 9 Sur 0 937.5 0.8 30
2019-10-09 11:00:00 22.5 3 Norte 7 Noroeste 0 937.5 1 42
2019-10-09 10:00:00 19.1 3 Este 11 Norte 0 937.1 0.8 50
2019-10-09 09:00:00 15.5 3 Norte 15 Nordeste 0 936.7 0.4 59
2019-10-09 08:00:00 14.7 4 Norte 12 Nordeste 0 936.5 0.1 60
2019-10-09 07:00:00 15.8 2 Norte 11 Nordeste 0 936.3 -0.3 56
2019-10-09 06:00:00 15.8 3 Norte 7 Norte 0 936.3 -0.7 55
2019-10-09 05:00:00 15.9 3 Norte 8 Norte 0 936.4 -0.7 54
2019-10-09 04:00:00 16.6 2 Norte 8 Norte 0 936.6 -0.5 52
2019-10-09 03:00:00 17.1 3 Norte 7 Norte 0 937 -0.3 52
2019-10-09 02:00:00 17.9 4 Norte 6 Nordeste 0 937.1 0.1 48
2019-10-09 01:00:00 19.1 2 Este 7 Este 0 937.1 0.3 44
2019-10-09 00:00:00 20.2 2 Norte 6 Norte 0 937.3 0.8 41
2019-10-08 23:00:00 21.9 4 Este 7 Este 0 937 0.6 35
2019-10-08 22:00:00 22.6 4 Sudeste 9 Sur 0 936.8 0.5 34
2019-10-08 21:00:00 25 3 Norte 9 Noroeste 0 936.5 0.1 28
2019-10-08 20:00:00 27.3 3 Norte 10 Norte 0 936.4 -0.2 25
2019-10-08 19:00:00 29.5 2 Sudoeste 10 Sudoeste 0 936.3 -0.9 21
2019-10-08 18:00:00 29.6 3 Oeste 10 Sudoeste 0 936.4 -1.2 22
2019-10-08 17:00:00 30.1 4 Sudoeste 12 Sudoeste 0 936.6 -1.6 21
2019-10-08 16:00:00 30.3 4 Noroeste 12 Oeste 0 937.2 -1.6 20
2019-10-08 15:00:00 29.7 5 Oeste 16 Oeste 0 937.6 -1.5 20
2019-10-08 14:00:00 28.9 4 Noroeste 9 Noroeste 0 938.2 -1 24
2019-10-08 13:00:00 27.1 3 Oeste 10 Noroeste 0 938.8 -0.3 28
2019-10-08 12:00:00 25.5 3 Sudoeste 10 Norte 0 939.1 0 30
2019-10-08 11:00:00 22.4 4 Norte 10 Nordeste 0 939.2 0.6 37
2019-10-08 10:00:00 18.2 3 Norte 10 Nordeste 0 939.1 0.7 48
2019-10-08 09:00:00 13.8 0 Calma 10 Sudeste 0 939.1 0.7 62
2019-10-08 08:00:00 14.5 5 Sur 12 Sur 0 938.6 0.2 58
2019-10-08 07:00:00 14.8 0 Calma 9 Nordeste 0 938.4 -0.1 58
2019-10-08 06:00:00 14.6 3 Sur 9 Sur 0 938.4 -0.1 58
2019-10-08 05:00:00 15.5 3 Nordeste 6 Nordeste 0 938.4 -0.2 56
2019-10-08 04:00:00 16.3 0 Calma 8 Noroeste 0 938.5 -0.1 52
2019-10-08 03:00:00 17.8 4 Nordeste 13 Este 0 938.5 -0.5 47
2019-10-08 02:00:00 17.1 3 Este 9 Norte 0 938.6 -0.2 49
2019-10-08 01:00:00 18.5 5 Nordeste 13 Nordeste 0 938.6 0.2 45
2019-10-08 00:00:00 19.3 3 Este 9 Este 0 939 0.9 43
2019-10-07 23:00:00 20.7 6 Este 9 Este 0 938.8 0.7 39
2019-10-07 22:00:00 21.7 4 Sudeste 10 Norte 0 938.4 0.4 36
2019-10-07 21:00:00 24.2 4 Norte 12 Norte 0 938.1 0.1 30
2019-10-07 20:00:00 25.7 5 Noroeste 14 Noroeste 0 938.1 0.1 27
2019-10-07 19:00:00 26.9 6 Norte 14 Norte 0 938 0 24
2019-10-07 18:00:00 27.4 7 Norte 18 Noroeste 0 938 -0.2 22
2019-10-07 17:00:00 28 6 Noroeste 17 Noroeste 0 938 -1 20
2019-10-07 16:00:00 27.9 6 Norte 18 Oeste 0 938 -1.5 20
2019-10-07 15:00:00 27.1 5 Noroeste 15 Noroeste 0 938.2 -1.3 21
2019-10-07 14:00:00 26.8 5 Nordeste 14 Noroeste 0 939 -0.6 22
2019-10-07 13:00:00 25.3 5 Norte 19 Norte 0 939.5 0.1 25
2019-10-07 12:00:00 23.3 7 Norte 16 Noroeste 0 939.5 0.5 29
2019-10-07 11:00:00 21.7 4 Norte 12 Noroeste 0 939.6 0.6 33
2019-10-07 10:00:00 17.6 2 Norte 4 Norte 0 939.4 1.1 43
2019-10-07 09:00:00 12.8 0 Calma 5 Este 0 939 0.7 58
2019-10-07 08:00:00 12.4 0 Calma 6 Norte 0 939 0.9 57
2019-10-07 07:00:00 13.2 0 Calma 5 Norte 0 938.3 -0.3 54
2019-10-07 06:00:00 13.7 0 Calma 5 Sudeste 0 938.3 -0.7 51
2019-10-07 05:00:00 14.1 2 Sur 4 Norte 0 938.1 -0.9 48
2019-10-07 04:00:00 14.9 3 Norte 4 Sudeste 0 938.6 -0.6 46
2019-10-07 03:00:00 15.7 2 Norte 4 Norte 0 939 -0.5 43
2019-10-07 02:00:00 16.8 4 Norte 6 Norte 0 939 -0.3 40
2019-10-07 01:00:00 18.1 0 Calma 8 Este 0 939.2 0.5 33
2019-10-07 00:00:00 19.1 2 Este 7 Sudoeste 0 939.5 1.4 29
2019-10-06 23:00:00 20.1 2 Noroeste 6 Oeste 0 939.3 1.7 28
2019-10-06 22:00:00 21.4 3 Oeste 8 Oeste 0 938.7 1.1 28
2019-10-06 21:00:00 22.4 0 Calma 4 Oeste 0 938.1 0.4 27
2019-10-06 20:00:00 25.2 2 Oeste 8 Oeste 0 937.6 -0.4 23
2019-10-06 19:00:00 27.5 2 Oeste 11 Oeste 0 937.6 -0.7 20
2019-10-06 18:00:00 27.8 3 Sudoeste 14 Oeste 0 937.7 -1.1 17
2019-10-06 17:00:00 28.3 4 Oeste 14 Sur 0 938 -1.4 16
2019-10-06 16:00:00 28.5 4 Oeste 14 Noroeste 0 938.3 -1.6 18
2019-10-06 15:00:00 27.9 5 Sudeste 13 Sur 0 938.8 -1.3 21
2019-10-06 14:00:00 27.4 3 Sudoeste 14 Sur 0 939.4 -0.4 24
2019-10-06 13:00:00 25.6 3 Norte 8 Oeste 0 939.9 0.6 30
2019-10-06 12:00:00 23.5 3 Oeste 10 Oeste 0 940.1 1.4 33
2019-10-06 11:00:00 21 2 Norte 7 Norte 0 939.8 1.6 42
2019-10-06 10:00:00 16.7 2 Norte 9 Norte 0 939.3 1.3 55
2019-10-06 09:00:00 12.2 0 Calma 9 Norte 0 938.7 0.8 69
2019-10-06 08:00:00 12.3 3 Norte 6 Norte 0 938.2 0.5 67
2019-10-06 07:00:00 13 3 Nordeste 12 Este 0 938 0 66
2019-10-06 06:00:00 13.8 3 Este 11 Norte 0 937.9 -0.2 63
2019-10-06 05:00:00 14.9 3 Nordeste 5 Este 0 937.7 -0.1 58
2019-10-06 04:00:00 15.5 2 Norte 4 Sudeste 0 938 0.1 57
2019-10-06 03:00:00 16.5 2 Nordeste 6 Sudeste 0 938.1 0.2 54
2019-10-06 02:00:00 17.4 4 Sudeste 8 Sudeste 0 937.8 0.1 51
2019-10-06 01:00:00 18.3 4 Sudeste 5 Sudeste 0 937.9 0.6 49
2019-10-06 00:00:00 19.2 3 Norte 8 Sudeste 0 937.9 1.4 45
2019-10-05 23:00:00 20.2 5 Sur 8 Sudoeste 0 937.7 1.6 41
2019-10-05 22:00:00 20.8 4 Sudeste 8 Sur 0 937.3 1.5 38
2019-10-05 21:00:00 22.6 0 Calma 6 Oeste 0 936.5 0.9 32
2019-10-05 20:00:00 25 2 Noroeste 12 Noroeste 0 936.1 0.4 27
2019-10-05 19:00:00 27.3 3 Oeste 13 Oeste 0 935.8 -0.2 25
2019-10-05 18:00:00 27.6 4 Oeste 16 Oeste 0 935.6 -0.5 25
2019-10-05 17:00:00 27.4 5 Oeste 15 Noroeste 0 935.7 -1.1 23
2019-10-05 16:00:00 28 5 Noroeste 16 Noroeste 0 936 -1.1 25
2019-10-05 15:00:00 27.8 4 Sudoeste 16 Sur 0 936.1 -1.1 24
2019-10-05 14:00:00 27.4 4 Sur 14 Sur 0 936.8 -0.6 26
2019-10-05 13:00:00 26 4 Sur 10 Sur 0 937.1 0.1 30
2019-10-05 12:00:00 23.7 3 Sur 7 Norte 0 937.2 0.6 35
2019-10-05 11:00:00 20.4 3 Norte 9 Norte 0 937.4 1.1 42
2019-10-05 10:00:00 16.7 4 Norte 8 Norte 0 937 0.9 49
2019-10-05 09:00:00 12.4 0 Calma 6 Norte 0 936.6 0.4 62
2019-10-05 08:00:00 12.3 3 Norte 6 Norte 0 936.3 0.1 59
2019-10-05 07:00:00 12.8 0 Calma 7 Norte 0 936.1 -0.3 58
2019-10-05 06:00:00 13 4 Norte 8 Norte 0 936.2 -0.6 55
2019-10-05 05:00:00 13.8 0 Calma 8 Norte 0 936.2 -0.4 54
2019-10-05 04:00:00 14.7 3 Norte 6 Norte 0 936.4 -0.4 50
2019-10-05 03:00:00 15.5 4 Norte 8 Norte 0 936.8 0.1 47
2019-10-05 02:00:00 16.8 2 Este 7 Sudeste 0 936.6 0.2 41
2019-10-05 01:00:00 17.4 2 Nordeste 5 Sudeste 0 936.8 0.5 40
2019-10-05 00:00:00 18.3 3 Sudeste 6 Sudeste 0 936.7 0.8 38
2019-10-04 23:00:00 19.6 3 Sudeste 8 Sudeste 0 936.4 0.7 34
2019-10-04 22:00:00 20.8 4 Sudeste 8 Sudeste 0 936.3 0.8 32
2019-10-04 21:00:00 22.7 4 Sudeste 8 Sudeste 0 935.9 0.4 28
2019-10-04 20:00:00 25.8 0 Calma 9 Sudoeste 0 935.7 0.2 21
2019-10-04 19:00:00 28.3 4 Sudoeste 19 Oeste 0 935.5 -0.6 16
2019-10-04 18:00:00 28.8 4 Sudoeste 16 Oeste 0 935.5 -1.1 16
2019-10-04 17:00:00 29.2 4 Sudoeste 15 Sur 0 935.5 -2.1 15
2019-10-04 16:00:00 29.5 5 Sur 18 Sur 0 936.1 -2.1 15
2019-10-04 15:00:00 28.5 5 Sudeste 16 Sudoeste 0 936.6 -2 17
2019-10-04 14:00:00 27.8 3 Norte 13 Sur 0 937.6 -1.3 19
2019-10-04 13:00:00 26 4 Sur 12 Sudoeste 0 938.2 -0.6 23
2019-10-04 12:00:00 23.6 3 Sudoeste 10 Sur 0 938.6 0.1 30
2019-10-04 11:00:00 20.9 4 Sur 8 Sur 0 938.9 0.6 41
2019-10-04 10:00:00 15.8 2 Norte 7 Norte 0 938.8 0.8 55
2019-10-04 09:00:00 11.5 3 Norte 11 Nordeste 0 938.5 0.4 67
2019-10-04 08:00:00 11.4 3 Norte 10 Norte 0 938.3 0.1 67
2019-10-04 07:00:00 12 0 Calma 8 Norte 0 938 -0.3 64
2019-10-04 06:00:00 12.1 3 Norte 8 Norte 0 938.1 -0.5 64
2019-10-04 05:00:00 12.8 4 Norte 7 Norte 0 938.2 -0.5 61
2019-10-04 04:00:00 13.7 2 Norte 7 Norte 0 938.3 -0.5 56
2019-10-04 03:00:00 14.9 4 Norte 7 Sudeste 0 938.6 -0.3 53
2019-10-04 02:00:00 15.8 3 Sudeste 6 Sudeste 0 938.7 0 50
2019-10-04 01:00:00 16.7 3 Sudeste 9 Sudeste 0 938.8 0.3 49
2019-10-04 00:00:00 17.5 5 Sudeste 9 Sudeste 0 938.9 0.7 46
2019-10-03 23:00:00 18.3 5 Sudeste 8 Sudeste 0 938.7 0.8 44
2019-10-03 22:00:00 19.2 5 Sudeste 10 Sudeste 0 938.5 0.9 35
2019-10-03 21:00:00 20.5 3 Sudeste 7 Sudeste 0 938.2 0.8 28
2019-10-03 20:00:00 23.3 0 Calma 15 Noroeste 0 937.9 0.2 22
2019-10-03 19:00:00 25.2 6 Oeste 14 Sudoeste 0 937.6 -0.5 19
2019-10-03 18:00:00 25.4 4 Sudoeste 13 Oeste 0 937.4 -1.1 19
2019-10-03 17:00:00 25.9 3 Sudoeste 15 Noroeste 0 937.7 -1.3 15
2019-10-03 16:00:00 25.2 6 Oeste 15 Noroeste 0 938.1 -1.2 19
2019-10-03 15:00:00 24.7 4 Noroeste 17 Oeste 0 938.5 -1 23
2019-10-03 14:00:00 23.7 4 Oeste 18 Sur 0 939 -0.4 25
2019-10-03 13:00:00 23 5 Sur 14 Sudoeste 0 939.3 0.1 26
2019-10-03 12:00:00 22.3 3 Sur 8 Sudoeste 0 939.5 0.7 30
2019-10-03 11:00:00 19 0 Calma 4 Sudeste 0 939.4 0.7 39
2019-10-03 10:00:00 14.7 0 Calma 6 Norte 0 939.2 0.6 53
2019-10-03 09:00:00 11.3 3 Norte 6 Norte 0 938.8 0.7 62
2019-10-03 08:00:00 10.5 0 Calma 6 Norte 0 938.7 0.6 60
2019-10-03 07:00:00 11.1 2 Norte 4 Sur 0 938.6 0.5 58
2019-10-03 06:00:00 11.3 0 Calma 8 Norte 0 938.1 -0.2 57
2019-10-03 05:00:00 12.3 3 Norte 6 Este 0 938.1 -0.3 53
2019-10-03 04:00:00 12.6 2 Norte 6 Norte 0 938.1 -0.6 52
2019-10-03 03:00:00 12.5 4 Sur 9 Sur 0 938.3 -0.4 54
2019-10-03 02:00:00 13.9 3 Nordeste 5 Norte 0 938.4 -0.2 45
2019-10-03 01:00:00 15 3 Norte 4 Norte 0 938.7 0.5 43
2019-10-03 00:00:00 16 2 Sur 5 Nordeste 0 938.7 1.1 38
2019-10-02 23:00:00 17.7 2 Nordeste 10 Norte 0 938.6 1.4 33
2019-10-02 22:00:00 19 5 Norte 14 Norte 0 938.2 1.4 31
2019-10-02 21:00:00 20.5 5 Norte 16 Norte 0 937.6 0.7 30
2019-10-02 20:00:00 22 7 Norte 19 Norte 0 937.2 0.4 28
2019-10-02 19:00:00 23.3 6 Nordeste 15 Norte 0 936.8 -0.2 26
2019-10-02 18:00:00 23.7 7 Noroeste 16 Noroeste 0 936.9 -0.5 24
2019-10-02 17:00:00 24.1 3 Este 12 Noroeste 0 936.8 -0.6 28
2019-10-02 16:00:00 24.1 3 Nordeste 15 Norte 0 937 -0.8 27
2019-10-02 15:00:00 23.6 5 Noroeste 16 Noroeste 0 937.4 -0.5 29
2019-10-02 14:00:00 22.4 6 Norte 13 Noroeste 0 937.4 -0.3 35
2019-10-02 13:00:00 21.4 5 Norte 13 Norte 0 937.8 0.3 39
2019-10-02 12:00:00 20.4 5 Norte 13 Norte 0 937.9 0.9 43
2019-10-02 11:00:00 18.6 3 Oeste 12 Noroeste 0 937.7 1.2 48
2019-10-02 10:00:00 16.5 2 Norte 7 Nordeste 0 937.5 1.2 56
2019-10-02 09:00:00 13.4 0 Calma 8 Sudeste 0 937 0.6 68
2019-10-02 08:00:00 13.2 5 Sudeste 9 Sudeste 0 936.5 0.4 67
2019-10-02 07:00:00 14 5 Sudeste 8 Sudeste 0 936.3 0.1 65
2019-10-02 06:00:00 14.4 3 Sudeste 7 Sur 0 936.4 -0.3 63
2019-10-02 05:00:00 15.7 4 Sudeste 10 Sur 0 936.1 -0.5 57
2019-10-02 04:00:00 16.2 4 Sur 11 Sudoeste 0 936.2 -0.4 55
2019-10-02 03:00:00 16.6 4 Sur 9 Sur 0 936.7 0.4 54
2019-10-02 02:00:00 17.7 2 Oeste 14 Sur 0 936.6 0.5 51
2019-10-02 01:00:00 17.8 3 Sudeste 10 Sur 0 936.6 0.9 52
2019-10-02 00:00:00 18.4 5 Sudeste 10 Sur 0 936.3 0.7 51
2019-10-01 23:00:00 19.3 5 Sur 12 Sur 0 936.1 1.3 47
2019-10-01 22:00:00 20.7 5 Sur 17 Sudoeste 0 935.7 1.4 42
2019-10-01 21:00:00 22.1 5 Sudoeste 18 Sudoeste 0 935.6 1.4 37
2019-10-01 20:00:00 23.3 5 Sudoeste 22 Oeste 0 934.8 0.7 31
2019-10-01 19:00:00 25.2 8 Sudoeste 27 Sudoeste 0 934.3 0.2 20
2019-10-01 18:00:00 26 8 Sudoeste 24 Oeste 0 934.2 -0.1 18
2019-10-01 17:00:00 26.5 8 Sudoeste 27 Oeste 0 934.1 -0.8 17
2019-10-01 16:00:00 27.4 9 Sudoeste 24 Oeste 0 934.1 -1.3 16
2019-10-01 15:00:00 27.5 6 Sudoeste 28 Noroeste 0 934.3 -1.4 17
2019-10-01 14:00:00 26.9 6 Sudoeste 22 Sur 0 934.9 -0.9 19
2019-10-01 13:00:00 26.3 4 Sudoeste 17 Oeste 0 935.4 -0.1 28
2019-10-01 12:00:00 24.7 6 Oeste 18 Oeste 0 935.7 0.8 30
2019-10-01 11:00:00 23.1 7 Sur 15 Sudoeste 0 935.8 1 33
2019-10-01 10:00:00 19.5 3 Sur 5 Sur 0 935.5 1.2 48
2019-10-01 09:00:00 16 2 Este -- -- -- 934.9 0.4 57
2019-10-01 08:00:00 14.9 3 Norte 6 Norte 0 934.8 0.3 58
2019-10-01 07:00:00 15.1 2 Nordeste 6 Norte 0 934.3 -0.8 57
2019-10-01 06:00:00 15.1 3 Nordeste 6 Norte 0 934.5 -1.2 56
2019-10-01 05:00:00 15.7 4 Norte 8 Norte 0 934.5 -1.3 55
2019-10-01 04:00:00 16.6 2 Norte 6 Norte 0 935.1 -0.9 50
2019-10-01 03:00:00 17.5 3 Norte 7 Norte 0 935.7 -0.7 46
2019-10-01 02:00:00 18.8 0 Calma 5 Sudeste 0 935.8 -0.4 43
2019-10-01 01:00:00 19.9 3 Este 6 Sudeste 0 936 -0.3 37
2019-10-01 00:00:00 20.9 2 Sur 9 Sudeste 0 936.4 0.4 34
2019-09-30 23:00:00 22.1 5 Sudeste 11 Sudeste 0 936.2 0.7 30
2019-09-30 22:00:00 23 7 Sudeste 12 Sudeste 0 936.3 0.9 29
2019-09-30 21:00:00 24.9 3 Sudoeste 12 Sur 0 936 0.4 28
2019-09-30 20:00:00 27.6 3 Sur 13 Sudoeste 0 935.5 -0.5 19
2019-09-30 19:00:00 29.5 6 Sur 11 Sur 0 935.4 -1.1 16
2019-09-30 18:00:00 29.5 3 Sur 13 Oeste 0 935.6 -1.4 16
2019-09-30 17:00:00 30.1 4 Noroeste 15 Noroeste 0 936 -1.8 15
2019-09-30 16:00:00 29.8 5 Oeste 15 Oeste 0 936.5 -1.8 16
2019-09-30 15:00:00 29.8 5 Oeste 14 Oeste 0 937 -1.5 16
2019-09-30 14:00:00 29.8 4 Sur 13 Sur 0 937.8 -0.8 17
2019-09-30 13:00:00 28.2 4 Sur 9 Sur 0 938.3 -0.1 21
2019-09-30 12:00:00 26 2 Sudeste 7 Este 0 938.5 0.4 28
2019-09-30 11:00:00 22.9 0 Calma 8 Norte 0 938.6 0.7 36
2019-09-30 10:00:00 -- -- -- -- -- -- -- -- --
2019-09-30 09:00:00 -- -- -- -- -- -- -- -- --
2019-09-30 08:00:00 -- -- -- -- -- -- -- -- --
2019-09-30 07:00:00 -- -- -- -- -- -- -- -- --
2019-09-30 06:00:00 -- -- -- -- -- -- -- -- --
2019-09-30 05:00:00 -- -- -- -- -- -- -- -- --
2019-09-30 04:00:00 -- -- -- -- -- -- -- -- --
2019-09-30 03:00:00 -- -- -- -- -- -- -- -- --
2019-09-30 02:00:00 -- -- -- -- -- -- -- -- --
2019-09-30 01:00:00 -- -- -- -- -- -- -- -- --
2019-09-30 00:00:00 -- -- -- -- -- -- -- -- --
2019-09-29 23:00:00 -- -- -- -- -- -- -- -- --
2019-09-29 22:00:00 -- -- -- -- -- -- -- -- --
2019-09-29 21:00:00 -- -- -- -- -- -- -- -- --
2019-09-29 20:00:00 -- -- -- -- -- -- -- -- --
2019-09-29 19:00:00 -- -- -- -- -- -- -- -- --
2019-09-29 18:00:00 -- -- -- -- -- -- -- -- --
2019-09-29 17:00:00 -- -- -- -- -- -- -- -- --
2019-09-29 16:00:00 -- -- -- -- -- -- -- -- --
2019-09-29 15:00:00 -- -- -- -- -- -- -- -- --
2019-09-29 14:00:00 -- -- -- -- -- -- -- -- --
2019-09-29 13:00:00 -- -- -- -- -- -- -- -- --
2019-09-29 12:00:00 -- -- -- -- -- -- -- -- --
2019-09-29 11:00:00 -- -- -- -- -- -- -- -- --
2019-09-29 10:00:00 -- -- -- -- -- -- -- -- --
2019-09-29 09:00:00 -- -- -- -- -- -- -- -- --
2019-09-29 08:00:00 -- -- -- -- -- -- -- -- --
2019-09-29 07:00:00 -- -- -- -- -- -- -- -- --
2019-09-29 06:00:00 -- -- -- -- -- -- -- -- --
2019-09-29 05:00:00 -- -- -- -- -- -- -- -- --
2019-09-29 04:00:00 -- -- -- -- -- -- -- -- --
2019-09-29 03:00:00 -- -- -- -- -- -- -- -- --
2019-09-29 02:00:00 -- -- -- -- -- -- -- -- --
2019-09-29 01:00:00 -- -- -- -- -- -- -- -- --
2019-09-29 00:00:00 -- -- -- -- -- -- -- -- --
2019-09-28 23:00:00 -- -- -- -- -- -- -- -- --
2019-09-28 22:00:00 -- -- -- -- -- -- -- -- --
2019-09-28 21:00:00 -- -- -- -- -- -- -- -- --
2019-09-28 20:00:00 -- -- -- -- -- -- -- -- --
2019-09-28 19:00:00 -- -- -- -- -- -- -- -- --
2019-09-28 18:00:00 -- -- -- -- -- -- -- -- --
2019-09-28 17:00:00 -- -- -- -- -- -- -- -- --
2019-09-28 16:00:00 -- -- -- -- -- -- -- -- --
2019-09-28 15:00:00 -- -- -- -- -- -- -- -- --
2019-09-28 14:00:00 -- -- -- -- -- -- -- -- --
2019-09-28 13:00:00 -- -- -- -- -- -- -- -- --
2019-09-28 12:00:00 -- -- -- -- -- -- -- -- --
2019-09-28 11:00:00 -- -- -- -- -- -- -- -- --
2019-09-28 10:00:00 -- -- -- -- -- -- -- -- --
2019-09-28 09:00:00 -- -- -- -- -- -- -- -- --
2019-09-28 08:00:00 -- -- -- -- -- -- -- -- --
2019-09-28 07:00:00 -- -- -- -- -- -- -- -- --
2019-09-28 06:00:00 -- -- -- -- -- -- -- -- --
2019-09-28 05:00:00 -- -- -- -- -- -- -- -- --
2019-09-28 04:00:00 -- -- -- -- -- -- -- -- --
2019-09-28 03:00:00 -- -- -- -- -- -- -- -- --
2019-09-28 02:00:00 -- -- -- -- -- -- -- -- --
2019-09-28 01:00:00 -- -- -- -- -- -- -- -- --
2019-09-28 00:00:00 -- -- -- -- -- -- -- -- --
2019-09-27 23:00:00 -- -- -- -- -- -- -- -- --
2019-09-27 22:00:00 -- -- -- -- -- -- -- -- --
2019-09-27 21:00:00 -- -- -- -- -- -- -- -- --
2019-09-27 20:00:00 -- -- -- -- -- -- -- -- --
2019-09-27 19:00:00 -- -- -- -- -- -- -- -- --
2019-09-27 18:00:00 -- -- -- -- -- -- -- -- --
2019-09-27 17:00:00 -- -- -- -- -- -- -- -- --
2019-09-27 16:00:00 -- -- -- -- -- -- -- -- --
2019-09-27 15:00:00 -- -- -- -- -- -- -- -- --
2019-09-27 14:00:00 -- -- -- -- -- -- -- -- --
2019-09-27 13:00:00 -- -- -- -- -- -- -- -- --
2019-09-27 12:00:00 -- -- -- -- -- -- -- -- --
2019-09-27 11:00:00 -- -- -- -- -- -- -- -- --
2019-09-27 10:00:00 -- -- -- -- -- -- -- -- --
2019-09-27 09:00:00 -- -- -- -- -- -- -- -- --
2019-09-27 08:00:00 -- -- -- -- -- -- -- -- --
2019-09-27 07:00:00 -- -- -- -- -- -- -- -- --
2019-09-27 06:00:00 -- -- -- -- -- -- -- -- --
2019-09-27 05:00:00 -- -- -- -- -- -- -- -- --
2019-09-27 04:00:00 -- -- -- -- -- -- -- -- --
2019-09-27 03:00:00 16.4 3 Norte 5 Norte 0 939.2 -0.2 57
2019-09-27 02:00:00 17.5 0 Calma 5 Norte 0 939.2 -0.1 52
2019-09-27 01:00:00 18.5 3 Nordeste 6 Nordeste 0 939.3 0.3 50
2019-09-27 00:00:00 19.6 2 Sudeste 6 Sur 0 939.4 1 44
2019-09-26 23:00:00 20.8 2 Este 6 Sudeste 0 939.3 1.4 40
2019-09-26 22:00:00 22.3 2 Este 8 Este 0 939 1.3 38
2019-09-26 21:00:00 24.2 2 Sur 10 Noroeste 0 938.4 0.9 32
2019-09-26 20:00:00 26.9 3 Oeste 10 Oeste 0 937.9 0.1 25
2019-09-26 19:00:00 27.9 5 Noroeste 14 Noroeste 0 937.7 -0.4 24
2019-09-26 18:00:00 28.3 4 Oeste 13 Noroeste 0 937.5 -1 24
2019-09-26 17:00:00 28.7 6 Noroeste 17 Sudoeste 0 937.8 -1.3 24
2019-09-26 16:00:00 28.8 3 Sudoeste 23 Sudeste 0 938.1 -1.5 23
2019-09-26 15:00:00 28.3 5 Este 15 Sudoeste 0 938.5 -1.5 24
2019-09-26 14:00:00 27.2 7 Sur 17 Sur 0 939.1 -0.8 25
2019-09-26 13:00:00 26.1 4 Este 10 Este 0 939.6 0 31
2019-09-26 12:00:00 23.8 4 Noroeste 8 Norte 0 940 0.9 39
2019-09-26 11:00:00 21.3 3 Norte 6 Nordeste 0 939.9 1.4 44
2019-09-26 10:00:00 17.3 0 Calma 9 Nordeste 0 939.6 1.3 59
2019-09-26 09:00:00 13.9 5 Norte 10 Norte 0 939.1 1 69
2019-09-26 08:00:00 13.3 2 Noroeste 5 Sur 0 938.5 0.5 71
2019-09-26 07:00:00 13.6 0 Calma 7 Norte 0 938.3 0.3 70
2019-09-26 06:00:00 13.6 0 Calma 5 Sudeste 0 938.1 0 71
2019-09-26 05:00:00 14.7 3 Sur 8 Este 0 938 -0.4 65
2019-09-26 04:00:00 14.7 2 Sur 5 Sur 0 938 -0.5 66
2019-09-26 03:00:00 15.6 2 Nordeste 8 Norte 0 938.1 -0.3 64
2019-09-26 02:00:00 16.1 3 Norte 6 Norte 0 938.4 0.1 60
2019-09-26 01:00:00 17.1 3 Este 8 Norte 0 938.5 0.5 53
2019-09-26 00:00:00 18 0 Calma 4 Este 0 938.4 1 49
2019-09-25 23:00:00 18.9 2 Norte 6 Sudeste 0 938.3 1.3 46
2019-09-25 22:00:00 20 3 Nordeste 9 Nordeste 0 938 1.3 41
2019-09-25 21:00:00 21.5 0 Calma 3 Oeste 0 937.4 0.9 36
2019-09-25 20:00:00 24 0 Calma 12 Oeste 0 937 0.4 29
2019-09-25 19:00:00 25 5 Noroeste 16 Oeste 0 936.7 -0.3 26
2019-09-25 18:00:00 25.4 7 Oeste 20 Sudoeste 0 936.5 -0.9 24
2019-09-25 17:00:00 25.8 6 Oeste 26 Noroeste 0 936.6 -1.2 23
2019-09-25 16:00:00 25.4 5 Sudoeste 21 Oeste 0 937 -1.3 25
2019-09-25 15:00:00 24.8 5 Sudoeste 18 Sudoeste 0 937.4 -1.3 29
2019-09-25 14:00:00 24.2 5 Sudoeste 19 Sudoeste 0 937.8 -0.8 33
2019-09-25 13:00:00 22.7 5 Sudoeste 16 Sudoeste 0 938.3 -0.1 47
2019-09-25 12:00:00 20.4 4 Oeste 13 Oeste 0 938.7 0.7 59
2019-09-25 11:00:00 20 3 Sudoeste 10 Sudoeste 0 938.6 1.1 65
2019-09-25 10:00:00 17.9 3 Oeste 11 Oeste 0 938.4 1 74
2019-09-25 09:00:00 16.8 4 Noroeste 8 Oeste 0 938 0.6 81
2019-09-25 08:00:00 17.4 3 Sudoeste 14 Sudoeste 0 937.5 0.3 76
2019-09-25 07:00:00 17.6 2 Oeste 8 Sudoeste 0 937.4 -0.3 81
2019-09-25 06:00:00 17.3 0 Calma 9 Sudoeste 0 937.4 -0.8 82
2019-09-25 05:00:00 17.3 3 Sur 9 Sur 0 937.2 -0.8 80
2019-09-25 04:00:00 17.5 4 Sur 9 Sur 0 937.7 -0.6 76
2019-09-25 03:00:00 18.2 2 Sur 9 Sudoeste 0 938.2 -0.4 64
2019-09-25 02:00:00 18.9 4 Sur 12 Sudoeste 0 938 -0.5 59
2019-09-25 01:00:00 19 3 Sur 10 Sur 0 938.3 0 53
2019-09-25 00:00:00 19.5 5 Sur 11 Sur 0 938.6 0.6 48
2019-09-24 23:00:00 20.3 6 Sur 11 Sur 0 938.5 1 43
2019-09-24 22:00:00 21.7 2 Sudoeste 9 Oeste 0 938.3 0.9 37
2019-09-24 21:00:00 23.3 2 Oeste 12 Oeste 0 938 0.5 33
2019-09-24 20:00:00 25.4 3 Oeste 16 Oeste 0 937.5 -0.4 27
2019-09-24 19:00:00 27.2 5 Oeste 19 Oeste 0 937.4 -1 22
2019-09-24 18:00:00 27.8 5 Oeste 21 Oeste 0 937.5 -1.5 20
2019-09-24 17:00:00 28.3 7 Oeste 18 Oeste 0 937.9 -1.8 19
2019-09-24 16:00:00 27.9 5 Oeste 21 Oeste 0 938.4 -2 24
2019-09-24 15:00:00 26.8 5 Sudoeste 17 Oeste 0 939 -1.9 25
2019-09-24 14:00:00 26.2 5 Oeste 17 Sur 0 939.7 -1.5 28
2019-09-24 13:00:00 25.1 8 Sur 18 Sur 0 940.4 -0.3 30
2019-09-24 12:00:00 23.4 5 Sur 13 Sur 0 940.9 0.7 35
2019-09-24 11:00:00 20.9 2 Sudoeste 8 Sur 0 941.2 1.5 44
2019-09-24 10:00:00 17.2 3 Sudeste 5 Sudeste 0 940.7 1 57
2019-09-24 09:00:00 12.9 3 Norte 6 Norte 0 940.2 0.6 75
2019-09-24 08:00:00 12.5 0 Calma 5 Norte 0 939.7 0.3 76
2019-09-24 07:00:00 12.6 2 Nordeste 5 Norte 0 939.7 -0.1 75
2019-09-24 06:00:00 13.1 3 Norte 5 Norte 0 939.6 -0.5 73
2019-09-24 05:00:00 13.6 2 Norte 5 Norte 0 939.4 -0.9 70
2019-09-24 04:00:00 14.3 0 Calma 4 Sudeste 0 939.8 -0.6 67
2019-09-24 03:00:00 14.8 0 Calma 5 Norte 0 940.1 -0.7 65
2019-09-24 02:00:00 15.5 0 Calma 6 Norte 0 940.3 -0.3 61
2019-09-24 01:00:00 16.2 3 Norte 8 Norte 0 940.4 0 60
2019-09-24 00:00:00 17.2 0 Calma 7 Este 0 940.8 0.7 54
2019-09-23 23:00:00 18 0 Calma 5 Sudeste 0 940.6 0.7 52
2019-09-23 22:00:00 19.8 0 Calma 8 Nordeste 0 940.4 0.9 44
2019-09-23 21:00:00 21.1 3 Norte 11 Noroeste 0 940.1 0.6 39
2019-09-23 20:00:00 22.9 3 Noroeste 9 Noroeste 0 939.9 0.3 34
2019-09-23 19:00:00 23.8 3 Oeste 10 Oeste 0 939.5 -0.3 31
2019-09-23 18:00:00 23.9 2 Sudoeste 12 Noroeste 0 939.5 -0.4 25
2019-09-23 17:00:00 24.1 5 Oeste 13 Oeste 0 939.6 -0.7 27
2019-09-23 16:00:00 23.9 5 Noroeste 13 Noroeste 0 939.8 -0.9 32
2019-09-23 15:00:00 23.5 3 Noroeste 13 Sudoeste 0 939.9 -1.3 33
2019-09-23 14:00:00 22.7 6 Sur 12 Sur 0 940.3 -1 36
2019-09-23 13:00:00 21.2 5 Sur 14 Sur 0 940.7 0.1 42
2019-09-23 12:00:00 20.2 3 Norte 9 Norte 0 941.2 1 47
2019-09-23 11:00:00 18.4 0 Calma 5 Oeste 0 941.3 1.4 56
2019-09-23 10:00:00 15.1 0 Calma 9 Nordeste 0 940.6 1.1 73
2019-09-23 09:00:00 11.9 3 Norte 6 Norte 0 940.2 1.2 82
2019-09-23 08:00:00 11.2 0 Calma 3 Sudeste 0 939.9 1.1 83
2019-09-23 07:00:00 11.6 0 Calma 5 Norte 0 939.5 1 80
2019-09-23 06:00:00 12.3 0 Calma 6 Este 0 939 0 79
2019-09-23 05:00:00 12.5 2 Sudeste 4 Sudeste 0 938.8 -0.1 79
2019-09-23 04:00:00 13.1 0 Calma 4 Norte 0 938.5 -0.5 76
2019-09-23 03:00:00 13.6 2 Norte 5 Sudeste 0 939 0.1 73
2019-09-23 02:00:00 14.2 2 Sudeste 8 Sudeste 0 938.9 0.5 70
2019-09-23 01:00:00 14.7 3 Sur 8 Sudeste 0 939 1 68
2019-09-23 00:00:00 15.4 5 Sur 7 Sudeste 0 938.9 1.6 67
2019-09-22 23:00:00 16.6 3 Sudoeste 9 Sudoeste 0 938.4 1.8 62
2019-09-22 22:00:00 16.9 5 Sur 10 Sudoeste 0 938 1.8 62
2019-09-22 21:00:00 18 4 Sur 10 Oeste 0 937.3 1.6 57
2019-09-22 20:00:00 19.8 3 Sudoeste 15 Sudoeste 0 936.6 0.8 49
2019-09-22 19:00:00 20.9 6 Oeste 28 Sudoeste 0 936.2 0.4 38
2019-09-22 18:00:00 21.4 6 Sudoeste 18 Sudoeste 0 935.7 0.2 51
2019-09-22 17:00:00 21.4 7 Sudoeste 20 Sur 0 935.8 0.2 54
2019-09-22 16:00:00 20.8 7 Oeste 22 Noroeste 0 935.8 0.2 62
2019-09-22 15:00:00 21.6 8 Sudoeste 28 Sur 0 935.5 -0.2 63
2019-09-22 14:00:00 21.1 15 Sur 32 Sur 0 935.6 0.1 63
2019-09-22 13:00:00 21.5 13 Sur 30 Sur 0 935.6 0.3 62
2019-09-22 12:00:00 20.5 13 Sur 26 Sur 0 935.7 1.1 68
2019-09-22 11:00:00 19.2 12 Sur 24 Sur 0 935.5 1.2 72
2019-09-22 10:00:00 18.5 8 Sur 18 Sur 0 935.3 1.2 77
2019-09-22 09:00:00 17.9 11 Sudeste 21 Sur 0 934.6 0.7 80
2019-09-22 08:00:00 17.5 8 Sudeste 16 Sudeste 0 934.3 0.3 78
2019-09-22 07:00:00 17.4 8 Sudeste 19 Sudeste 0 934.1 -0.1 77
2019-09-22 06:00:00 17.2 8 Sur 18 Sur 0 933.9 -0.3 79
2019-09-22 05:00:00 17.4 4 Sur 14 Sur 0 934 -0.4 78
2019-09-22 04:00:00 17.6 6 Sur 14 Sur 0 934.2 -0.4 78
2019-09-22 03:00:00 17.9 8 Sur 16 Sudeste 0 934.2 -0.8 73
2019-09-22 02:00:00 18.2 6 Sur 14 Sudeste 0 934.4 -0.3 69
2019-09-22 01:00:00 17.7 6 Sur 13 Sur 0 934.6 0 71
2019-09-22 00:00:00 18 4 Sur 13 Sur 0 935 1.1 71
2019-09-21 23:00:00 18.7 7 Sur 13 Sur 0 934.7 1.2 69
2019-09-21 22:00:00 19.3 7 Sur 13 Sur 0 934.6 1 66
2019-09-21 21:00:00 19.8 2 Sudoeste 13 Sur 0 933.9 0.3 66
2019-09-21 20:00:00 20.4 8 Sur 14 Sudoeste 0 933.5 0.1 65
2019-09-21 19:00:00 20.4 8 Sur 28 Sur 0.2 933.6 -0.3 70
2019-09-21 18:00:00 22.7 14 Sur 31 Sur 0 933.6 -0.6 49
2019-09-21 17:00:00 23.4 11 Sur 25 Sur 0 933.4 -0.9 47
2019-09-21 16:00:00 22.8 11 Sur 27 Sur 0 933.9 -1 56
2019-09-21 15:00:00 21.9 12 Sur 23 Sur 0 934.2 -0.7 62
2019-09-21 14:00:00 22 9 Sur 17 Sudoeste 0 934.3 -0.5 63
2019-09-21 13:00:00 21.6 5 Sudoeste 14 Sudoeste 0 934.9 0.3 62
2019-09-21 12:00:00 21.7 3 Sudoeste 14 Sur 0 934.9 0.3 62
2019-09-21 11:00:00 20.8 4 Sudeste 11 Sur 0 934.8 0.3 64
2019-09-21 10:00:00 20 4 Nordeste 9 Nordeste 0 934.6 0.2 71
2019-09-21 09:00:00 17.5 2 Este 5 Este 0 934.6 0.2 82
2019-09-21 08:00:00 17.8 2 Sudoeste 10 Sudoeste 0.2 934.5 0.3 81
2019-09-21 07:00:00 18 3 Nordeste 6 Nordeste 0 934.4 0.2 75
2019-09-21 06:00:00 18.4 3 Norte 10 Norte 0 934.4 0 77
2019-09-21 05:00:00 18.9 3 Norte 9 Noroeste 0 934.2 -0.5 77
2019-09-21 04:00:00 19.5 2 Sudeste 7 Sudoeste 0 934.2 -0.5 72
2019-09-21 03:00:00 19.7 3 Sur 9 Sur 0 934.4 -0.4 69
2019-09-21 02:00:00 20.1 5 Sur 13 Sur 0 934.7 0.2 67
2019-09-21 01:00:00 20.1 7 Sur 17 Sudeste 0 934.7 0.4 65
2019-09-21 00:00:00 20.3 6 Sur 15 Sur 0 934.8 0.8 62
2019-09-20 23:00:00 21.6 8 Sur 15 Sur 0 934.5 1 57
2019-09-20 22:00:00 22.2 5 Sur 14 Sudoeste 0 934.3 0.8 53
2019-09-20 21:00:00 22.5 6 Sur 12 Sur 0 934 0.4 53
2019-09-20 20:00:00 23.8 6 Sur 19 Sudoeste 0 933.5 -0.1 49
2019-09-20 19:00:00 24.1 3 Oeste 19 Sur 0 933.5 -0.3 52
2019-09-20 18:00:00 25.8 11 Sur 23 Sur 0 933.6 -0.8 41
2019-09-20 17:00:00 26.9 10 Sur 22 Sur 0 933.6 -1.5 36
2019-09-20 16:00:00 26.3 4 Norte 18 Norte 0 933.8 -1.7 46
2019-09-20 15:00:00 26.2 6 Norte 18 Norte 0 934.4 -1.5 44
2019-09-20 14:00:00 25.8 4 Nordeste 16 Norte 0 935.1 -1.1 48
2019-09-20 13:00:00 24.7 5 Nordeste 12 Nordeste 0 935.5 -0.6 54
2019-09-20 12:00:00 23.2 3 Sudeste 9 Sur 0 935.9 0.2 58
2019-09-20 11:00:00 21.8 5 Sudeste 13 Sur 0 936.2 0.8 61
2019-09-20 10:00:00 19.4 2 Este 10 Norte 0 936.1 0.8 75
2019-09-20 09:00:00 18.2 6 Nordeste 11 Nordeste 0 935.7 0.2 78
2019-09-20 08:00:00 17.8 4 Norte 9 Nordeste 0 935.4 -0.2 78
2019-09-20 07:00:00 18.4 3 Este 9 Este 0 935.3 -0.6 75
2019-09-20 06:00:00 18 2 Este 5 Este 0 935.5 -0.6 75
2019-09-20 05:00:00 18.3 0 Calma 5 Norte 0 935.6 -0.6 72
2019-09-20 04:00:00 18.5 0 Calma 9 Norte 0 935.9 -0.4 70
2019-09-20 03:00:00 18.6 2 Nordeste 17 Nordeste 0 936.1 -0.2 65
2019-09-20 02:00:00 18.9 0 Calma 12 Nordeste 0 936.2 -0.1 62
2019-09-20 01:00:00 20.1 4 Nordeste 8 Norte 0 936.3 0.2 57
2019-09-20 00:00:00 20.8 3 Sudeste 8 Sudeste 0 936.3 0.7 52
2019-09-19 23:00:00 21.5 4 Sur 9 Sur 0 936.3 1.2 45
2019-09-19 22:00:00 22.3 6 Sudeste 9 Sudeste 0 936.1 1.2 37
2019-09-19 21:00:00 24 5 Sur 12 Sur 0 935.6 0.6 33
2019-09-19 20:00:00 26.3 6 Sur 13 Sudeste 0 935.1 -0.1 30
2019-09-19 19:00:00 27.7 4 Sudoeste 11 Sur 0 934.9 -0.7 28
2019-09-19 18:00:00 28.2 2 Sudoeste 15 Sur 0 935 -1.3 27
2019-09-19 17:00:00 29.1 8 Sur 20 Sur 0 935.2 -1.4 28
2019-09-19 16:00:00 28.3 8 Sur 20 Sur 0 935.6 -1.5 30
2019-09-19 15:00:00 28.4 6 Sudeste 16 Sur 0 936.3 -1.1 30
2019-09-19 14:00:00 27.8 3 Oeste 11 Sudoeste 0 936.6 -0.9 34
2019-09-19 13:00:00 26.5 4 Este 10 Sudeste 0 937.1 -0.2 36
2019-09-19 12:00:00 25.1 3 Sudoeste 8 Sudeste 0 937.4 0.4 46
2019-09-19 11:00:00 23.2 2 Este 9 Sudeste 0 937.5 0.9 52
2019-09-19 10:00:00 19.2 2 Sudeste 8 Norte 0 937.3 1 70
2019-09-19 09:00:00 16.6 5 Nordeste 8 Nordeste 0 937 0.8 80
2019-09-19 08:00:00 16.1 4 Nordeste 9 Norte 0 936.6 0.4 80
2019-09-19 07:00:00 16.3 0 Calma 7 Nordeste 0 936.3 -0.2 79
2019-09-19 06:00:00 16.7 0 Calma 10 Nordeste 0 936.2 -0.6 78
2019-09-19 05:00:00 17 2 Nordeste 9 Norte 0 936.2 -0.4 77
2019-09-19 04:00:00 17.6 3 Norte 6 Norte 0 936.5 -0.3 74
2019-09-19 03:00:00 18.4 0 Calma 8 Nordeste 0 936.8 -0.2 69
2019-09-19 02:00:00 19 3 Nordeste 8 Norte 0 936.6 -0.3 67
2019-09-19 01:00:00 20.2 2 Norte 7 Nordeste 0 936.8 0.2 63
2019-09-19 00:00:00 21.7 4 Nordeste 16 Este 0 937 0.8 55
2019-09-18 23:00:00 22.7 6 Este 16 Nordeste 0 936.9 1.2 54
2019-09-18 22:00:00 23.2 5 Nordeste 11 Nordeste 0 936.6 1.1 51
2019-09-18 21:00:00 24.2 3 Nordeste 10 Norte 0 936.2 0.7 49
2019-09-18 20:00:00 25.5 5 Norte 14 Noroeste 0 935.7 -0.1 43
2019-09-18 19:00:00 26.6 5 Noroeste 10 Noroeste 0 935.5 -0.6 38
2019-09-18 18:00:00 26.9 4 Sur 13 Nordeste 0 935.5 -1.2 36
2019-09-18 17:00:00 27.8 4 Oeste 12 Noroeste 0 935.8 -1.3 34
2019-09-18 16:00:00 27.4 5 Sudoeste 17 Oeste 0 936.1 -1.3 34
2019-09-18 15:00:00 27 3 Sur 13 Oeste 0 936.7 -0.6 38
2019-09-18 14:00:00 25.8 5 Oeste 14 Oeste 0 937.1 -0.2 41
2019-09-18 13:00:00 24.8 3 Oeste 9 Sur 0 937.4 0.4 47
2019-09-18 12:00:00 23.3 3 Sur 7 Sur 0 937.3 0.7 51
2019-09-18 11:00:00 21.1 2 Sur 6 Norte 0 937.3 1.1 56
2019-09-18 10:00:00 18.1 2 Norte 5 Norte 0 937 1.1 69
2019-09-18 09:00:00 15.6 3 Nordeste 8 Nordeste 0 936.6 0.9 80
2019-09-18 08:00:00 14.3 2 Norte 6 Este 0 936.2 0.4 84
2019-09-18 07:00:00 14.7 2 Noroeste 5 Noroeste 0 935.9 -0.2 83
2019-09-18 06:00:00 15 2 Nordeste 5 Noroeste 0 935.7 -0.8 81
2019-09-18 05:00:00 16 0 Calma 11 Nordeste 0 935.8 -1.3 76
2019-09-18 04:00:00 15.8 2 Sur 5 Sudeste 0 936.1 -0.7 77
2019-09-18 03:00:00 16.7 4 Nordeste 16 Noroeste 0 936.5 0 72
2019-09-18 02:00:00 17.4 7 Noroeste 18 Noroeste 0 937.1 1.2 67
2019-09-18 01:00:00 17.2 4 Norte 12 Nordeste 0 936.8 0.8 73
2019-09-18 00:00:00 17.9 5 Nordeste 13 Norte 0 936.5 0.5 66
2019-09-17 23:00:00 19.1 8 Nordeste 17 Nordeste 0 935.9 -0.1 61
2019-09-17 22:00:00 19.5 10 Nordeste 19 Nordeste 0 936 1.1 61
2019-09-17 21:00:00 20.6 8 Nordeste 19 Nordeste 0 936 0.4 60